sensor_id;sensor_type;location;lat;lon;timestamp;pressure;altitude;pressure_sealevel;temperature;humidity
68654;BME280;55636;51.108;13.622;2024-02-21T00:00:57;101026.50;;;8.47;52.99
68654;BME280;55636;51.108;13.622;2024-02-21T00:01:59;101019.88;;;8.48;53.00
68654;BME280;55636;51.108;13.622;2024-02-21T00:03:02;101024.56;;;8.47;53.01
68654;BME280;55636;51.108;13.622;2024-02-21T00:04:06;101016.31;;;8.47;52.78
68654;BME280;55636;51.108;13.622;2024-02-21T00:05:08;101017.13;;;8.48;52.94
68654;BME280;55636;51.108;13.622;2024-02-21T00:06:11;101016.94;;;8.49;52.88
68654;BME280;55636;51.108;13.622;2024-02-21T00:07:13;101023.50;;;8.48;52.88
68654;BME280;55636;51.108;13.622;2024-02-21T00:08:16;101011.44;;;8.49;52.73
68654;BME280;55636;51.108;13.622;2024-02-21T00:09:18;101015.84;;;8.50;52.78
68654;BME280;55636;51.108;13.622;2024-02-21T00:10:21;101012.00;;;8.51;52.94
68654;BME280;55636;51.108;13.622;2024-02-21T00:11:24;101012.84;;;8.52;52.86
68654;BME280;55636;51.108;13.622;2024-02-21T00:12:27;101012.00;;;8.51;52.93
68654;BME280;55636;51.108;13.622;2024-02-21T00:13:29;101015.41;;;8.53;53.04
68654;BME280;55636;51.108;13.622;2024-02-21T00:14:32;101010.94;;;8.52;52.77
68654;BME280;55636;51.108;13.622;2024-02-21T00:15:35;101009.88;;;8.53;52.62
68654;BME280;55636;51.108;13.622;2024-02-21T00:16:37;101009.03;;;8.53;52.78
68654;BME280;55636;51.108;13.622;2024-02-21T00:17:39;100999.94;;;8.52;52.72
68654;BME280;55636;51.108;13.622;2024-02-21T00:18:43;101006.91;;;8.55;52.74
68654;BME280;55636;51.108;13.622;2024-02-21T00:19:46;101001.38;;;8.55;52.89
68654;BME280;55636;51.108;13.622;2024-02-21T00:20:48;101006.91;;;8.55;52.79
68654;BME280;55636;51.108;13.622;2024-02-21T00:21:51;100995.03;;;8.54;52.65
68654;BME280;55636;51.108;13.622;2024-02-21T00:22:53;101001.63;;;8.53;52.67
68654;BME280;55636;51.108;13.622;2024-02-21T00:23:56;101007.13;;;8.53;52.73
68654;BME280;55636;51.108;13.622;2024-02-21T00:24:59;101000.53;;;8.54;52.49
68654;BME280;55636;51.108;13.622;2024-02-21T00:26:01;100995.88;;;8.55;52.72
68654;BME280;55636;51.108;13.622;2024-02-21T00:27:04;100999.47;;;8.55;52.63
68654;BME280;55636;51.108;13.622;2024-02-21T00:28:06;100998.41;;;8.57;52.50
68654;BME280;55636;51.108;13.622;2024-02-21T00:29:09;100993.72;;;8.57;52.54
68654;BME280;55636;51.108;13.622;2024-02-21T00:30:12;100990.13;;;8.57;52.74
68654;BME280;55636;51.108;13.622;2024-02-21T00:31:14;100990.97;;;8.57;52.51
68654;BME280;55636;51.108;13.622;2024-02-21T00:32:17;100984.63;;;8.57;52.75
68654;BME280;55636;51.108;13.622;2024-02-21T00:33:19;100992.66;;;8.58;52.73
68654;BME280;55636;51.108;13.622;2024-02-21T00:34:22;100980.81;;;8.58;52.59
68654;BME280;55636;51.108;13.622;2024-02-21T00:35:25;100987.16;;;8.58;52.50
68654;BME280;55636;51.108;13.622;2024-02-21T00:36:27;100988.00;;;8.59;52.40
68654;BME280;55636;51.108;13.622;2024-02-21T00:37:31;100979.50;;;8.60;52.48
68654;BME280;55636;51.108;13.622;2024-02-21T00:38:33;100976.75;;;8.60;52.44
68654;BME280;55636;51.108;13.622;2024-02-21T00:39:35;100982.25;;;8.60;52.51
68654;BME280;55636;51.108;13.622;2024-02-21T00:40:39;100976.75;;;8.60;52.48
68654;BME280;55636;51.108;13.622;2024-02-21T00:41:41;100979.50;;;8.60;52.42
68654;BME280;55636;51.108;13.622;2024-02-21T00:42:44;100979.50;;;8.60;52.38
68654;BME280;55636;51.108;13.622;2024-02-21T00:43:46;100980.31;;;8.61;52.28
68654;BME280;55636;51.108;13.622;2024-02-21T00:44:50;100979.25;;;8.62;52.25
68654;BME280;55636;51.108;13.622;2024-02-21T00:45:53;100977.56;;;8.61;52.45
68654;BME280;55636;51.108;13.622;2024-02-21T00:46:55;100980.09;;;8.62;52.43
68654;BME280;55636;51.108;13.622;2024-02-21T00:47:58;100974.59;;;8.62;52.33
68654;BME280;55636;51.108;13.622;2024-02-21T00:49:00;100973.75;;;8.62;52.39
68654;BME280;55636;51.108;13.622;2024-02-21T00:50:03;100982.03;;;8.62;52.38
68654;BME280;55636;51.108;13.622;2024-02-21T00:51:09;100981.19;;;8.61;52.48
68654;BME280;55636;51.108;13.622;2024-02-21T00:52:11;100969.31;;;8.61;52.38
68654;BME280;55636;51.108;13.622;2024-02-21T00:53:13;100971.00;;;8.62;52.41
68654;BME280;55636;51.108;13.622;2024-02-21T00:54:16;100970.75;;;8.63;52.37
68654;BME280;55636;51.108;13.622;2024-02-21T00:55:18;100965.50;;;8.62;52.34
68654;BME280;55636;51.108;13.622;2024-02-21T00:56:20;100966.13;;;8.64;52.38
68654;BME280;55636;51.108;13.622;2024-02-21T00:57:23;100952.34;;;8.64;52.30
68654;BME280;55636;51.108;13.622;2024-02-21T00:58:25;100960.59;;;8.64;52.47
68654;BME280;55636;51.108;13.622;2024-02-21T00:59:28;100957.00;;;8.63;52.44
68654;BME280;55636;51.108;13.622;2024-02-21T01:00:30;100964.19;;;8.64;52.21
68654;BME280;55636;51.108;13.622;2024-02-21T01:01:33;100963.13;;;8.65;52.28
68654;BME280;55636;51.108;13.622;2024-02-21T01:02:35;100955.09;;;8.64;52.34
68654;BME280;55636;51.108;13.622;2024-02-21T01:03:39;100962.25;;;8.65;52.21
68654;BME280;55636;51.108;13.622;2024-02-21T01:04:44;100961.44;;;8.64;52.19
68654;BME280;55636;51.108;13.622;2024-02-21T01:05:47;100959.50;;;8.65;52.14
68654;BME280;55636;51.108;13.622;2024-02-21T01:06:50;100955.91;;;8.64;52.16
68654;BME280;55636;51.108;13.622;2024-02-21T01:07:52;100957.00;;;8.63;52.15
68654;BME280;55636;51.108;13.622;2024-02-21T01:08:54;100947.66;;;8.64;52.16
68654;BME280;55636;51.108;13.622;2024-02-21T01:09:57;100957.84;;;8.64;52.10
68654;BME280;55636;51.108;13.622;2024-02-21T01:10:59;100946.84;;;8.64;52.22
68654;BME280;55636;51.108;13.622;2024-02-21T01:12:02;100948.97;;;8.62;52.30
68654;BME280;55636;51.108;13.622;2024-02-21T01:13:05;100943.47;;;8.62;52.33
68654;BME280;55636;51.108;13.622;2024-02-21T01:14:07;100957.00;;;8.63;52.16
68654;BME280;55636;51.108;13.622;2024-02-21T01:15:10;100946.84;;;8.64;52.28
68654;BME280;55636;51.108;13.622;2024-02-21T01:16:13;100944.28;;;8.62;52.05
68654;BME280;55636;51.108;13.622;2024-02-21T01:17:16;100946.22;;;8.62;52.21
68654;BME280;55636;51.108;13.622;2024-02-21T01:18:18;100944.53;;;8.61;52.06
68654;BME280;55636;51.108;13.622;2024-02-21T01:19:21;100940.94;;;8.60;52.05
68654;BME280;55636;51.108;13.622;2024-02-21T01:20:24;100942.84;;;8.60;52.07
68654;BME280;55636;51.108;13.622;2024-02-21T01:21:26;100948.34;;;8.60;52.10
68654;BME280;55636;51.108;13.622;2024-02-21T01:22:29;100935.44;;;8.60;52.15
68654;BME280;55636;51.108;13.622;2024-02-21T01:23:31;100941.19;;;8.59;52.18
68654;BME280;55636;51.108;13.622;2024-02-21T01:24:33;100937.94;;;8.62;52.28
68654;BME280;55636;51.108;13.622;2024-02-21T01:25:36;100936.50;;;8.59;52.12
68654;BME280;55636;51.108;13.622;2024-02-21T01:26:38;100933.75;;;8.59;52.13
68654;BME280;55636;51.108;13.622;2024-02-21T01:27:41;100937.34;;;8.60;52.28
68654;BME280;55636;51.108;13.622;2024-02-21T01:28:43;100931.22;;;8.58;52.16
68654;BME280;55636;51.108;13.622;2024-02-21T01:29:46;100924.88;;;8.57;52.12
68654;BME280;55636;51.108;13.622;2024-02-21T01:30:49;100930.38;;;8.57;52.18
68654;BME280;55636;51.108;13.622;2024-02-21T01:31:52;100925.72;;;8.58;52.17
68654;BME280;55636;51.108;13.622;2024-02-21T01:32:54;100918.53;;;8.57;52.17
68654;BME280;55636;51.108;13.622;2024-02-21T01:33:57;100919.16;;;8.59;52.13
68654;BME280;55636;51.108;13.622;2024-02-21T01:35:00;100910.88;;;8.59;52.09
68654;BME280;55636;51.108;13.622;2024-02-21T01:36:03;100908.97;;;8.59;52.18
68654;BME280;55636;51.108;13.622;2024-02-21T01:37:05;100908.13;;;8.59;52.13
68654;BME280;55636;51.108;13.622;2024-02-21T01:38:10;100904.28;;;8.60;52.24
68654;BME280;55636;51.108;13.622;2024-02-21T01:39:13;100902.38;;;8.60;52.14
68654;BME280;55636;51.108;13.622;2024-02-21T01:40:15;100906.22;;;8.59;52.04
68654;BME280;55636;51.108;13.622;2024-02-21T01:41:18;100901.53;;;8.60;52.17
68654;BME280;55636;51.108;13.622;2024-02-21T01:42:20;100897.94;;;8.59;52.22
68654;BME280;55636;51.108;13.622;2024-02-21T01:43:22;100897.13;;;8.59;52.19
68654;BME280;55636;51.108;13.622;2024-02-21T01:44:25;100889.69;;;8.59;52.13
68654;BME280;55636;51.108;13.622;2024-02-21T01:45:27;100890.75;;;8.58;52.15
68654;BME280;55636;51.108;13.622;2024-02-21T01:46:30;100892.69;;;8.58;52.13
68654;BME280;55636;51.108;13.622;2024-02-21T01:47:33;100884.41;;;8.58;52.05
68654;BME280;55636;51.108;13.622;2024-02-21T01:48:36;100893.75;;;8.57;52.02
68654;BME280;55636;51.108;13.622;2024-02-21T01:49:39;100891.81;;;8.57;52.34
68654;BME280;55636;51.108;13.622;2024-02-21T01:50:42;100894.00;;;8.55;52.07
68654;BME280;55636;51.108;13.622;2024-02-21T01:51:44;100887.41;;;8.56;52.07
68654;BME280;55636;51.108;13.622;2024-02-21T01:52:48;100881.28;;;8.54;51.98
68654;BME280;55636;51.108;13.622;2024-02-21T01:53:53;100888.47;;;8.55;52.10
68654;BME280;55636;51.108;13.622;2024-02-21T01:54:57;100882.13;;;8.54;52.01
68654;BME280;55636;51.108;13.622;2024-02-21T01:56:00;100884.03;;;8.54;52.06
68654;BME280;55636;51.108;13.622;2024-02-21T01:57:04;100887.03;;;8.52;52.08
68654;BME280;55636;51.108;13.622;2024-02-21T01:58:07;100889.78;;;8.52;52.18
68654;BME280;55636;51.108;13.622;2024-02-21T01:59:10;100879.84;;;8.51;52.10
68654;BME280;55636;51.108;13.622;2024-02-21T02:00:14;100887.28;;;8.51;52.05
68654;BME280;55636;51.108;13.622;2024-02-21T02:01:18;100872.66;;;8.50;52.14
68654;BME280;55636;51.108;13.622;2024-02-21T02:02:24;100878.16;;;8.50;52.16
68654;BME280;55636;51.108;13.622;2024-02-21T02:03:26;100875.41;;;8.50;52.21
68654;BME280;55636;51.108;13.622;2024-02-21T02:04:31;100882.84;;;8.50;52.17
68654;BME280;55636;51.108;13.622;2024-02-21T02:05:33;100880.31;;;8.48;52.12
68654;BME280;55636;51.108;13.622;2024-02-21T02:06:36;100875.88;;;8.47;52.09
68654;BME280;55636;51.108;13.622;2024-02-21T02:07:38;100883.91;;;8.49;52.13
68654;BME280;55636;51.108;13.622;2024-02-21T02:08:42;100880.31;;;8.48;52.24
68654;BME280;55636;51.108;13.622;2024-02-21T02:09:44;100870.38;;;8.47;52.23
68654;BME280;55636;51.108;13.622;2024-02-21T02:10:47;100875.88;;;8.47;52.14
68654;BME280;55636;51.108;13.622;2024-02-21T02:11:50;100870.38;;;8.47;52.20
68654;BME280;55636;51.108;13.622;2024-02-21T02:12:53;100883.31;;;8.47;52.42
68654;BME280;55636;51.108;13.622;2024-02-21T02:13:55;100875.88;;;8.47;52.19
68654;BME280;55636;51.108;13.622;2024-02-21T02:15:02;100878.63;;;8.47;52.33
68654;BME280;55636;51.108;13.622;2024-02-21T02:16:06;100863.19;;;8.46;52.24
68654;BME280;55636;51.108;13.622;2024-02-21T02:17:09;100869.53;;;8.47;52.22
68654;BME280;55636;51.108;13.622;2024-02-21T02:18:13;100875.88;;;8.47;52.41
68654;BME280;55636;51.108;13.622;2024-02-21T02:19:15;100870.38;;;8.47;52.20
68654;BME280;55636;51.108;13.622;2024-02-21T02:20:18;100873.13;;;8.47;52.34
68654;BME280;55636;51.108;13.622;2024-02-21T02:21:28;100868.44;;;8.48;52.23
68654;BME280;55636;51.108;13.622;2024-02-21T02:22:32;100866.78;;;8.47;52.28
68654;BME280;55636;51.108;13.622;2024-02-21T02:23:36;100862.13;;;8.47;52.31
68654;BME280;55636;51.108;13.622;2024-02-21T02:24:39;100865.09;;;8.46;52.42
68654;BME280;55636;51.108;13.622;2024-02-21T02:25:41;100869.53;;;8.47;52.47
68654;BME280;55636;51.108;13.622;2024-02-21T02:26:44;100867.00;;;8.45;52.44
68654;BME280;55636;51.108;13.622;2024-02-21T02:27:46;100868.69;;;8.46;52.54
68654;BME280;55636;51.108;13.622;2024-02-21T02:28:49;100856.84;;;8.46;52.46
68654;BME280;55636;51.108;13.622;2024-02-21T02:29:52;100858.53;;;8.47;52.33
68654;BME280;55636;51.108;13.622;2024-02-21T02:30:54;100852.41;;;8.45;52.38
68654;BME280;55636;51.108;13.622;2024-02-21T02:31:57;100857.09;;;8.44;52.50
68654;BME280;55636;51.108;13.622;2024-02-21T02:32:59;100865.34;;;8.44;52.32
68654;BME280;55636;51.108;13.622;2024-02-21T02:34:02;100858.97;;;8.44;52.40
68654;BME280;55636;51.108;13.622;2024-02-21T02:35:05;100865.34;;;8.44;52.38
68654;BME280;55636;51.108;13.622;2024-02-21T02:36:07;100851.56;;;8.44;52.38
68654;BME280;55636;51.108;13.622;2024-02-21T02:37:10;100852.66;;;8.43;52.30
68654;BME280;55636;51.108;13.622;2024-02-21T02:38:13;100860.91;;;8.43;52.44
68654;BME280;55636;51.108;13.622;2024-02-21T02:39:16;100855.97;;;8.45;52.48
68654;BME280;55636;51.108;13.622;2024-02-21T02:40:18;100861.50;;;8.45;52.29
68654;BME280;55636;51.108;13.622;2024-02-21T02:41:21;100853.47;;;8.44;52.50
68654;BME280;55636;51.108;13.622;2024-02-21T02:42:23;100848.22;;;8.42;52.45
68654;BME280;55636;51.108;13.622;2024-02-21T02:43:25;100858.97;;;8.44;52.47
68654;BME280;55636;51.108;13.622;2024-02-21T02:44:28;100858.97;;;8.44;52.53
68654;BME280;55636;51.108;13.622;2024-02-21T02:45:30;100854.34;;;8.44;52.62
68654;BME280;55636;51.108;13.622;2024-02-21T02:46:34;100847.97;;;8.44;52.48
68654;BME280;55636;51.108;13.622;2024-02-21T02:47:36;100847.97;;;8.44;52.59
68654;BME280;55636;51.108;13.622;2024-02-21T02:48:39;100851.56;;;8.44;52.48
68654;BME280;55636;51.108;13.622;2024-02-21T02:49:41;100851.78;;;8.43;52.49
68654;BME280;55636;51.108;13.622;2024-02-21T02:50:44;100847.13;;;8.43;52.42
68654;BME280;55636;51.108;13.622;2024-02-21T02:51:48;100847.13;;;8.43;52.50
68654;BME280;55636;51.108;13.622;2024-02-21T02:52:50;100839.94;;;8.42;52.56
68654;BME280;55636;51.108;13.622;2024-02-21T02:53:53;100846.53;;;8.41;52.50
68654;BME280;55636;51.108;13.622;2024-02-21T02:54:55;100844.63;;;8.42;52.54
68654;BME280;55636;51.108;13.622;2024-02-21T02:55:58;100841.88;;;8.42;52.54
68654;BME280;55636;51.108;13.622;2024-02-21T02:57:00;100841.00;;;8.41;52.65
68654;BME280;55636;51.108;13.622;2024-02-21T02:58:03;100839.34;;;8.40;52.68
68654;BME280;55636;51.108;13.622;2024-02-21T02:59:05;100841.00;;;8.41;52.61
68654;BME280;55636;51.108;13.622;2024-02-21T03:00:08;100836.56;;;8.40;52.65
68654;BME280;55636;51.108;13.622;2024-02-21T03:01:11;100838.25;;;8.41;52.64
68654;BME280;55636;51.108;13.622;2024-02-21T03:02:14;100836.56;;;8.40;52.48
68654;BME280;55636;51.108;13.622;2024-02-21T03:03:17;100833.00;;;8.39;52.66
68654;BME280;55636;51.108;13.622;2024-02-21T03:04:19;100832.16;;;8.39;52.63
68654;BME280;55636;51.108;13.622;2024-02-21T03:05:22;100834.06;;;8.38;52.79
68654;BME280;55636;51.108;13.622;2024-02-21T03:06:24;100840.44;;;8.39;52.53
68654;BME280;55636;51.108;13.622;2024-02-21T03:07:27;100835.75;;;8.39;52.71
68654;BME280;55636;51.108;13.622;2024-02-21T03:08:29;100834.06;;;8.38;52.70
68654;BME280;55636;51.108;13.622;2024-02-21T03:09:32;100833.22;;;8.38;52.69
68654;BME280;55636;51.108;13.622;2024-02-21T03:10:34;100827.72;;;8.38;52.70
68654;BME280;55636;51.108;13.622;2024-02-21T03:11:37;100818.63;;;8.37;52.77
68654;BME280;55636;51.108;13.622;2024-02-21T03:12:40;100823.06;;;8.38;52.54
68654;BME280;55636;51.108;13.622;2024-02-21T03:13:43;100826.03;;;8.37;52.66
68654;BME280;55636;51.108;13.622;2024-02-21T03:14:46;100824.13;;;8.37;52.68
68654;BME280;55636;51.108;13.622;2024-02-21T03:15:48;100834.91;;;8.39;52.44
68654;BME280;55636;51.108;13.622;2024-02-21T03:16:51;100827.72;;;8.38;52.78
68654;BME280;55636;51.108;13.622;2024-02-21T03:17:54;100825.56;;;8.40;52.86
68654;BME280;55636;51.108;13.622;2024-02-21T03:18:56;100829.19;;;8.41;52.74
68654;BME280;55636;51.108;13.622;2024-02-21T03:19:58;100825.56;;;8.40;52.75
68654;BME280;55636;51.108;13.622;2024-02-21T03:21:02;100829.41;;;8.39;52.76
68654;BME280;55636;51.108;13.622;2024-02-21T03:22:05;100827.25;;;8.41;52.62
68654;BME280;55636;51.108;13.622;2024-02-21T03:23:08;100824.75;;;8.39;52.65
68654;BME280;55636;51.108;13.622;2024-02-21T03:24:10;100819.22;;;8.39;52.66
68654;BME280;55636;51.108;13.622;2024-02-21T03:25:13;100825.56;;;8.40;52.64
68654;BME280;55636;51.108;13.622;2024-02-21T03:26:16;100823.66;;;8.41;52.81
68654;BME280;55636;51.108;13.622;2024-02-21T03:27:19;100825.56;;;8.40;52.68
68654;BME280;55636;51.108;13.622;2024-02-21T03:28:21;100821.16;;;8.39;52.64
68654;BME280;55636;51.108;13.622;2024-02-21T03:29:25;100822.59;;;8.42;52.78
68654;BME280;55636;51.108;13.622;2024-02-21T03:30:27;100815.66;;;8.39;52.68
68654;BME280;55636;51.108;13.622;2024-02-21T03:31:29;100821.97;;;8.39;52.73
68654;BME280;55636;51.108;13.622;2024-02-21T03:32:34;100819.22;;;8.39;52.76
68654;BME280;55636;51.108;13.622;2024-02-21T03:33:36;100823.06;;;8.38;52.54
68654;BME280;55636;51.108;13.622;2024-02-21T03:34:38;100823.06;;;8.38;52.78
68654;BME280;55636;51.108;13.622;2024-02-21T03:35:41;100823.91;;;8.39;52.72
68654;BME280;55636;51.108;13.622;2024-02-21T03:36:43;100821.16;;;8.39;52.85
68654;BME280;55636;51.108;13.622;2024-02-21T03:37:45;100820.28;;;8.38;52.76
68654;BME280;55636;51.108;13.622;2024-02-21T03:38:48;100818.41;;;8.39;52.68
68654;BME280;55636;51.108;13.622;2024-02-21T03:39:51;100820.06;;;8.40;52.60
68654;BME280;55636;51.108;13.622;2024-02-21T03:40:53;100813.72;;;8.39;52.77
68654;BME280;55636;51.108;13.622;2024-02-21T03:41:56;100812.91;;;8.39;52.66
68654;BME280;55636;51.108;13.622;2024-02-21T03:42:58;100812.91;;;8.39;52.73
68654;BME280;55636;51.108;13.622;2024-02-21T03:44:01;100811.78;;;8.40;52.70
68654;BME280;55636;51.108;13.622;2024-02-21T03:45:04;100812.66;;;8.41;52.69
68654;BME280;55636;51.108;13.622;2024-02-21T03:46:06;100811.78;;;8.40;52.79
68654;BME280;55636;51.108;13.622;2024-02-21T03:47:09;100806.28;;;8.40;52.74
68654;BME280;55636;51.108;13.622;2024-02-21T03:48:14;100803.53;;;8.40;52.80
68654;BME280;55636;51.108;13.622;2024-02-21T03:49:16;100810.72;;;8.41;52.78
68654;BME280;55636;51.108;13.622;2024-02-21T03:50:18;100803.53;;;8.40;52.63
68654;BME280;55636;51.108;13.622;2024-02-21T03:51:21;100809.03;;;8.40;52.71
68654;BME280;55636;51.108;13.622;2024-02-21T03:52:23;100806.91;;;8.42;52.84
68654;BME280;55636;51.108;13.622;2024-02-21T03:53:27;100805.22;;;8.41;52.63
68654;BME280;55636;51.108;13.622;2024-02-21T03:54:30;100800.56;;;8.42;52.65
68654;BME280;55636;51.108;13.622;2024-02-21T03:55:32;100811.34;;;8.43;52.68
68654;BME280;55636;51.108;13.622;2024-02-21T03:56:38;100798.88;;;8.41;52.84
68654;BME280;55636;51.108;13.622;2024-02-21T03:57:42;100799.72;;;8.41;52.53
68654;BME280;55636;51.108;13.622;2024-02-21T03:58:44;100800.56;;;8.42;52.47
68654;BME280;55636;51.108;13.622;2024-02-21T03:59:50;100803.09;;;8.43;52.67
68654;BME280;55636;51.108;13.622;2024-02-21T04:00:53;100794.22;;;8.41;52.54
68654;BME280;55636;51.108;13.622;2024-02-21T04:01:55;100800.56;;;8.42;52.49
68654;BME280;55636;51.108;13.622;2024-02-21T04:02:58;100799.47;;;8.43;52.47
68654;BME280;55636;51.108;13.622;2024-02-21T04:04:01;100795.06;;;8.42;52.64
68654;BME280;55636;51.108;13.622;2024-02-21T04:05:04;100799.47;;;8.43;52.51
68654;BME280;55636;51.108;13.622;2024-02-21T04:06:07;100797.59;;;8.43;52.66
68654;BME280;55636;51.108;13.622;2024-02-21T04:07:09;100791.22;;;8.43;52.44
68654;BME280;55636;51.108;13.622;2024-02-21T04:08:12;100797.59;;;8.43;52.57
68654;BME280;55636;51.108;13.622;2024-02-21T04:09:14;100794.81;;;8.43;52.38
68654;BME280;55636;51.108;13.622;2024-02-21T04:10:17;100797.59;;;8.43;52.36
68654;BME280;55636;51.108;13.622;2024-02-21T04:11:19;100795.41;;;8.45;52.59
68654;BME280;55636;51.108;13.622;2024-02-21T04:12:21;100789.91;;;8.45;52.43
68654;BME280;55636;51.108;13.622;2024-02-21T04:13:24;100799.03;;;8.46;52.40
68654;BME280;55636;51.108;13.622;2024-02-21T04:14:26;100800.09;;;8.45;52.40
68654;BME280;55636;51.108;13.622;2024-02-21T04:15:29;100798.78;;;8.47;52.45
68654;BME280;55636;51.108;13.622;2024-02-21T04:16:31;100804.53;;;8.46;52.59
68654;BME280;55636;51.108;13.622;2024-02-21T04:17:34;100795.41;;;8.45;52.56
68654;BME280;55636;51.108;13.622;2024-02-21T04:18:36;100792.66;;;8.45;52.52
68654;BME280;55636;51.108;13.622;2024-02-21T04:19:39;100796.28;;;8.46;52.63
68654;BME280;55636;51.108;13.622;2024-02-21T04:20:41;100806.22;;;8.47;52.41
68654;BME280;55636;51.108;13.622;2024-02-21T04:21:43;100797.97;;;8.47;52.60
68654;BME280;55636;51.108;13.622;2024-02-21T04:22:46;100786.09;;;8.46;52.44
68654;BME280;55636;51.108;13.622;2024-02-21T04:23:49;100803.47;;;8.47;52.46
68654;BME280;55636;51.108;13.622;2024-02-21T04:24:51;100799.59;;;8.48;52.47
68654;BME280;55636;51.108;13.622;2024-02-21T04:25:54;100798.78;;;8.47;52.42
68654;BME280;55636;51.108;13.622;2024-02-21T04:26:56;100799.59;;;8.48;52.42
68654;BME280;55636;51.108;13.622;2024-02-21T04:27:59;100802.38;;;8.48;52.29
68654;BME280;55636;51.108;13.622;2024-02-21T04:29:01;100797.72;;;8.48;52.15
68654;BME280;55636;51.108;13.622;2024-02-21T04:30:05;100787.78;;;8.47;52.29
68654;BME280;55636;51.108;13.622;2024-02-21T04:31:08;100792.22;;;8.48;52.33
68654;BME280;55636;51.108;13.622;2024-02-21T04:32:11;100794.97;;;8.48;52.29
68654;BME280;55636;51.108;13.622;2024-02-21T04:33:13;100793.88;;;8.49;52.21
68654;BME280;55636;51.108;13.622;2024-02-21T04:34:16;100793.88;;;8.49;52.29
68654;BME280;55636;51.108;13.622;2024-02-21T04:35:18;100797.22;;;8.51;52.11
68654;BME280;55636;51.108;13.622;2024-02-21T04:36:20;100788.38;;;8.49;52.08
68654;BME280;55636;51.108;13.622;2024-02-21T04:37:23;100793.66;;;8.51;52.32
68654;BME280;55636;51.108;13.622;2024-02-21T04:38:26;100794.72;;;8.50;52.16
68654;BME280;55636;51.108;13.622;2024-02-21T04:39:28;100790.03;;;8.50;52.09
68654;BME280;55636;51.108;13.622;2024-02-21T04:40:31;100785.63;;;8.49;52.14
68654;BME280;55636;51.108;13.622;2024-02-21T04:41:33;100789.44;;;8.48;52.10
68654;BME280;55636;51.108;13.622;2024-02-21T04:42:36;100783.72;;;8.50;52.13
68654;BME280;55636;51.108;13.622;2024-02-21T04:43:38;100787.53;;;8.49;52.04
68654;BME280;55636;51.108;13.622;2024-02-21T04:44:41;100787.53;;;8.49;51.98
68654;BME280;55636;51.108;13.622;2024-02-21T04:45:43;100783.94;;;8.48;52.13
68654;BME280;55636;51.108;13.622;2024-02-21T04:46:46;100782.88;;;8.49;52.08
68654;BME280;55636;51.108;13.622;2024-02-21T04:47:48;100777.81;;;8.46;52.15
68654;BME280;55636;51.108;13.622;2024-02-21T04:48:51;100780.56;;;8.46;52.20
68654;BME280;55636;51.108;13.622;2024-02-21T04:49:53;100775.06;;;8.46;52.17
68654;BME280;55636;51.108;13.622;2024-02-21T04:50:56;100766.56;;;8.48;52.08
68654;BME280;55636;51.108;13.622;2024-02-21T04:51:58;100781.19;;;8.48;52.15
68654;BME280;55636;51.108;13.622;2024-02-21T04:53:01;100777.81;;;8.46;52.20
68654;BME280;55636;51.108;13.622;2024-02-21T04:54:03;100777.81;;;8.46;52.07
68654;BME280;55636;51.108;13.622;2024-02-21T04:55:06;100778.88;;;8.45;52.25
68654;BME280;55636;51.108;13.622;2024-02-21T04:56:09;100782.75;;;8.44;52.20
68654;BME280;55636;51.108;13.622;2024-02-21T04:57:12;100778.88;;;8.45;52.19
68654;BME280;55636;51.108;13.622;2024-02-21T04:58:19;100786.09;;;8.46;52.22
68654;BME280;55636;51.108;13.622;2024-02-21T04:59:21;100785.25;;;8.46;52.07
68654;BME280;55636;51.108;13.622;2024-02-21T05:00:24;100777.81;;;8.46;52.21
68654;BME280;55636;51.108;13.622;2024-02-21T05:01:28;100775.06;;;8.46;52.18
68654;BME280;55636;51.108;13.622;2024-02-21T05:02:30;100771.25;;;8.47;52.19
68654;BME280;55636;51.108;13.622;2024-02-21T05:03:33;100775.94;;;8.47;52.23
68654;BME280;55636;51.108;13.622;2024-02-21T05:04:35;100772.06;;;8.48;52.30
68654;BME280;55636;51.108;13.622;2024-02-21T05:05:39;100770.41;;;8.47;52.27
68654;BME280;55636;51.108;13.622;2024-02-21T05:06:42;100766.81;;;8.46;52.32
68654;BME280;55636;51.108;13.622;2024-02-21T05:07:44;100761.31;;;8.46;52.19
68654;BME280;55636;51.108;13.622;2024-02-21T05:08:47;100761.31;;;8.46;52.44
68654;BME280;55636;51.108;13.622;2024-02-21T05:09:50;100769.56;;;8.46;52.53
68654;BME280;55636;51.108;13.622;2024-02-21T05:10:52;100764.91;;;8.47;52.35
68654;BME280;55636;51.108;13.622;2024-02-21T05:11:55;100758.56;;;8.46;52.40
68654;BME280;55636;51.108;13.622;2024-02-21T05:12:57;100763.00;;;8.47;52.47
68654;BME280;55636;51.108;13.622;2024-02-21T05:14:01;100768.25;;;8.49;52.54
68654;BME280;55636;51.108;13.622;2024-02-21T05:15:04;100768.50;;;8.47;52.49
68654;BME280;55636;51.108;13.622;2024-02-21T05:16:06;100753.91;;;8.47;52.65
68654;BME280;55636;51.108;13.622;2024-02-21T05:17:09;100761.31;;;8.46;52.76
68654;BME280;55636;51.108;13.622;2024-02-21T05:18:11;100758.56;;;8.46;52.70
68654;BME280;55636;51.108;13.622;2024-02-21T05:19:14;100755.81;;;8.46;52.80
68654;BME280;55636;51.108;13.622;2024-02-21T05:20:16;100763.00;;;8.47;52.78
68654;BME280;55636;51.108;13.622;2024-02-21T05:21:19;100754.72;;;8.47;52.76
68654;BME280;55636;51.108;13.622;2024-02-21T05:22:21;100755.56;;;8.48;52.93
68654;BME280;55636;51.108;13.622;2024-02-21T05:23:24;100755.56;;;8.48;52.80
68654;BME280;55636;51.108;13.622;2024-02-21T05:24:26;100759.41;;;8.47;52.70
68654;BME280;55636;51.108;13.622;2024-02-21T05:25:28;100758.56;;;8.46;52.83
68654;BME280;55636;51.108;13.622;2024-02-21T05:26:31;100767.44;;;8.48;52.80
68654;BME280;55636;51.108;13.622;2024-02-21T05:27:34;100765.75;;;8.47;52.79
68654;BME280;55636;51.108;13.622;2024-02-21T05:28:37;100756.41;;;8.48;52.82